sensor_id;sensor_type;location;lat;lon;timestamp;pressure;altitude;pressure_sealevel;temperature;humidity
50632;BME280;49583;45.590;-122.498;2023-08-30T00:02:01;101539.48;;;23.29;54.20
50632;BME280;49583;45.590;-122.498;2023-08-30T00:04:14;101546.73;;;23.34;54.19
50632;BME280;49583;45.590;-122.498;2023-08-30T00:06:45;101552.60;;;23.41;54.29
50632;BME280;49583;45.590;-122.498;2023-08-30T00:09:13;101557.43;;;23.49;54.34
50632;BME280;49583;45.590;-122.498;2023-08-30T00:11:31;101563.23;;;23.56;54.29
50632;BME280;49583;45.590;-122.498;2023-08-30T00:13:46;101569.52;;;23.65;54.22
50632;BME280;49583;45.590;-122.498;2023-08-30T00:16:04;101566.37;;;23.71;54.20
50632;BME280;49583;45.590;-122.498;2023-08-30T00:18:20;101568.95;;;23.75;54.28
50632;BME280;49583;45.590;-122.498;2023-08-30T00:20:40;101572.23;;;23.74;54.13
50632;BME280;49583;45.590;-122.498;2023-08-30T00:23:02;101567.74;;;23.70;54.15
50632;BME280;49583;45.590;-122.498;2023-08-30T00:25:22;101570.07;;;23.67;54.31
50632;BME280;49583;45.590;-122.498;2023-08-30T00:27:37;101568.85;;;23.59;54.26
50632;BME280;49583;45.590;-122.498;2023-08-30T00:29:59;101570.61;;;23.55;54.33
50632;BME280;49583;45.590;-122.498;2023-08-30T00:32:18;101572.97;;;23.53;54.67
50632;BME280;49583;45.590;-122.498;2023-08-30T00:34:40;101570.50;;;23.52;54.78
50632;BME280;49583;45.590;-122.498;2023-08-30T00:37:17;101571.30;;;23.53;55.02
50632;BME280;49583;45.590;-122.498;2023-08-30T00:39:40;101567.80;;;23.52;54.98
50632;BME280;49583;45.590;-122.498;2023-08-30T00:42:02;101566.21;;;23.50;55.08
50632;BME280;49583;45.590;-122.498;2023-08-30T00:44:32;101564.88;;;23.48;54.97
50632;BME280;49583;45.590;-122.498;2023-08-30T00:46:51;101565.00;;;23.45;55.08
50632;BME280;49583;45.590;-122.498;2023-08-30T00:49:10;101564.45;;;23.44;55.27
50632;BME280;49583;45.590;-122.498;2023-08-30T00:51:29;101564.30;;;23.44;55.38
50632;BME280;49583;45.590;-122.498;2023-08-30T00:53:43;101563.77;;;23.42;55.42
50632;BME280;49583;45.590;-122.498;2023-08-30T00:56:00;101560.02;;;23.37;55.48
50632;BME280;49583;45.590;-122.498;2023-08-30T00:58:19;101560.37;;;23.35;55.50
50632;BME280;49583;45.590;-122.498;2023-08-30T01:00:41;101559.96;;;23.31;55.48
50632;BME280;49583;45.590;-122.498;2023-08-30T01:03:20;101561.08;;;23.22;55.67
50632;BME280;49583;45.590;-122.498;2023-08-30T01:06:00;101565.14;;;23.17;55.70
50632;BME280;49583;45.590;-122.498;2023-08-30T01:08:23;101563.63;;;23.14;55.92
50632;BME280;49583;45.590;-122.498;2023-08-30T01:10:56;101562.36;;;23.12;55.83
50632;BME280;49583;45.590;-122.498;2023-08-30T01:13:21;101560.02;;;23.08;55.78
50632;BME280;49583;45.590;-122.498;2023-08-30T01:15:39;101559.27;;;23.00;55.80
50632;BME280;49583;45.590;-122.498;2023-08-30T01:18:28;101564.27;;;22.92;55.86
50632;BME280;49583;45.590;-122.498;2023-08-30T01:20:51;101563.45;;;22.89;56.01
50632;BME280;49583;45.590;-122.498;2023-08-30T01:23:39;101557.11;;;22.81;55.87
50632;BME280;49583;45.590;-122.498;2023-08-30T01:26:03;101560.08;;;22.79;56.07
50632;BME280;49583;45.590;-122.498;2023-08-30T01:28:24;101564.41;;;22.77;56.03
50632;BME280;49583;45.590;-122.498;2023-08-30T01:30:50;101563.75;;;22.75;56.31
50632;BME280;49583;45.590;-122.498;2023-08-30T01:33:17;101559.36;;;22.73;56.34
50632;BME280;49583;45.590;-122.498;2023-08-30T01:35:37;101562.08;;;22.72;56.38
50632;BME280;49583;45.590;-122.498;2023-08-30T01:37:56;101563.61;;;22.71;56.50
50632;BME280;49583;45.590;-122.498;2023-08-30T01:40:32;101562.73;;;22.70;56.55
50632;BME280;49583;45.590;-122.498;2023-08-30T01:42:57;101564.60;;;22.69;56.46
50632;BME280;49583;45.590;-122.498;2023-08-30T01:45:12;101565.42;;;22.66;56.52
50632;BME280;49583;45.590;-122.498;2023-08-30T01:47:45;101562.77;;;22.62;56.54
50632;BME280;49583;45.590;-122.498;2023-08-30T01:50:13;101563.17;;;22.61;56.62
50632;BME280;49583;45.590;-122.498;2023-08-30T01:52:35;101565.73;;;22.62;56.63
50632;BME280;49583;45.590;-122.498;2023-08-30T01:55:07;101564.68;;;22.62;56.65
50632;BME280;49583;45.590;-122.498;2023-08-30T01:57:34;101559.59;;;22.62;56.63
50632;BME280;49583;45.590;-122.498;2023-08-30T02:00:14;101563.89;;;22.61;56.51
50632;BME280;49583;45.590;-122.498;2023-08-30T02:02:41;101564.80;;;22.60;56.71
50632;BME280;49583;45.590;-122.498;2023-08-30T02:05:04;101568.58;;;22.58;56.82
50632;BME280;49583;45.590;-122.498;2023-08-30T02:07:36;101574.33;;;22.57;56.81
50632;BME280;49583;45.590;-122.498;2023-08-30T02:10:06;101573.31;;;22.56;56.88
50632;BME280;49583;45.590;-122.498;2023-08-30T02:12:42;101581.13;;;22.56;56.96
50632;BME280;49583;45.590;-122.498;2023-08-30T02:14:59;101577.48;;;22.54;56.90
50632;BME280;49583;45.590;-122.498;2023-08-30T02:17:30;101581.52;;;22.51;56.89
50632;BME280;49583;45.590;-122.498;2023-08-30T02:19:47;101580.98;;;22.49;56.99
50632;BME280;49583;45.590;-122.498;2023-08-30T02:22:21;101584.42;;;22.47;57.02
50632;BME280;49583;45.590;-122.498;2023-08-30T02:24:44;101586.68;;;22.46;57.15
50632;BME280;49583;45.590;-122.498;2023-08-30T02:27:00;101588.15;;;22.45;57.22
50632;BME280;49583;45.590;-122.498;2023-08-30T02:29:17;101588.17;;;22.44;57.25
50632;BME280;49583;45.590;-122.498;2023-08-30T02:31:33;101583.17;;;22.40;57.16
50632;BME280;49583;45.590;-122.498;2023-08-30T02:33:54;101583.98;;;22.38;57.38
50632;BME280;49583;45.590;-122.498;2023-08-30T02:36:39;101589.63;;;22.36;57.35
50632;BME280;49583;45.590;-122.498;2023-08-30T02:38:55;101584.46;;;22.33;57.58
50632;BME280;49583;45.590;-122.498;2023-08-30T02:41:22;101583.39;;;22.31;57.53
50632;BME280;49583;45.590;-122.498;2023-08-30T02:43:44;101584.15;;;22.26;57.45
50632;BME280;49583;45.590;-122.498;2023-08-30T02:46:08;101585.33;;;22.21;57.54
50632;BME280;49583;45.590;-122.498;2023-08-30T02:48:24;101588.88;;;22.17;57.70
50632;BME280;49583;45.590;-122.498;2023-08-30T02:50:53;101591.96;;;22.13;57.90
50632;BME280;49583;45.590;-122.498;2023-08-30T02:53:11;101594.39;;;22.10;57.99
50632;BME280;49583;45.590;-122.498;2023-08-30T02:55:41;101598.56;;;22.07;58.23
50632;BME280;49583;45.590;-122.498;2023-08-30T02:58:19;101597.73;;;22.03;58.23
50632;BME280;49583;45.590;-122.498;2023-08-30T03:00:36;101595.13;;;22.00;58.46
50632;BME280;49583;45.590;-122.498;2023-08-30T03:03:02;101594.14;;;21.95;58.50
50632;BME280;49583;45.590;-122.498;2023-08-30T03:05:26;101596.52;;;21.94;58.61
50632;BME280;49583;45.590;-122.498;2023-08-30T03:07:45;101596.83;;;21.89;58.72
50632;BME280;49583;45.590;-122.498;2023-08-30T03:10:11;101603.39;;;21.84;58.86
50632;BME280;49583;45.590;-122.498;2023-08-30T03:12:27;101606.56;;;21.79;58.75
50632;BME280;49583;45.590;-122.498;2023-08-30T03:14:53;101609.80;;;21.74;58.99
50632;BME280;49583;45.590;-122.498;2023-08-30T03:17:06;101612.64;;;21.69;59.14
50632;BME280;49583;45.590;-122.498;2023-08-30T03:19:24;101618.17;;;21.66;59.25
50632;BME280;49583;45.590;-122.498;2023-08-30T03:21:56;101621.08;;;21.60;59.31
50632;BME280;49583;45.590;-122.498;2023-08-30T03:24:20;101623.43;;;21.56;59.52
50632;BME280;49583;45.590;-122.498;2023-08-30T03:26:40;101622.92;;;21.51;59.48
50632;BME280;49583;45.590;-122.498;2023-08-30T03:28:56;101624.14;;;21.46;59.66
50632;BME280;49583;45.590;-122.498;2023-08-30T03:31:29;101629.92;;;21.41;59.91
50632;BME280;49583;45.590;-122.498;2023-08-30T03:33:49;101631.88;;;21.36;59.90
50632;BME280;49583;45.590;-122.498;2023-08-30T03:36:05;101636.77;;;21.32;60.09
50632;BME280;49583;45.590;-122.498;2023-08-30T03:38:18;101641.50;;;21.28;60.18
50632;BME280;49583;45.590;-122.498;2023-08-30T03:41:05;101641.59;;;21.24;60.37
50632;BME280;49583;45.590;-122.498;2023-08-30T03:43:22;101642.41;;;21.21;60.40
50632;BME280;49583;45.590;-122.498;2023-08-30T03:45:39;101640.30;;;21.18;60.53
50632;BME280;49583;45.590;-122.498;2023-08-30T03:47:55;101639.17;;;21.15;60.58
50632;BME280;49583;45.590;-122.498;2023-08-30T03:50:14;101641.64;;;21.14;60.72
50632;BME280;49583;45.590;-122.498;2023-08-30T03:52:35;101643.41;;;21.11;60.85
50632;BME280;49583;45.590;-122.498;2023-08-30T03:55:18;101641.44;;;21.07;60.98
50632;BME280;49583;45.590;-122.498;2023-08-30T03:57:48;101639.48;;;21.05;61.06
50632;BME280;49583;45.590;-122.498;2023-08-30T04:00:03;101646.89;;;21.04;61.11
50632;BME280;49583;45.590;-122.498;2023-08-30T04:02:33;101648.48;;;21.02;61.08
50632;BME280;49583;45.590;-122.498;2023-08-30T04:04:51;101656.44;;;21.00;61.25
50632;BME280;49583;45.590;-122.498;2023-08-30T04:07:11;101658.14;;;20.96;61.24
50632;BME280;49583;45.590;-122.498;2023-08-30T04:09:36;101659.50;;;20.95;61.23
50632;BME280;49583;45.590;-122.498;2023-08-30T04:12:01;101660.14;;;20.93;61.27
50632;BME280;49583;45.590;-122.498;2023-08-30T04:14:15;101660.55;;;20.91;61.20
50632;BME280;49583;45.590;-122.498;2023-08-30T04:16:34;101656.52;;;20.89;61.32
50632;BME280;49583;45.590;-122.498;2023-08-30T04:18:59;101662.48;;;20.88;61.25
50632;BME280;49583;45.590;-122.498;2023-08-30T04:21:14;101668.05;;;20.86;61.36
50632;BME280;49583;45.590;-122.498;2023-08-30T04:23:30;101670.06;;;20.83;61.47
50632;BME280;49583;45.590;-122.498;2023-08-30T04:25:43;101674.30;;;20.82;61.46
50632;BME280;49583;45.590;-122.498;2023-08-30T04:28:01;101675.58;;;20.81;61.38
50632;BME280;49583;45.590;-122.498;2023-08-30T04:30:27;101678.20;;;20.77;61.40
50632;BME280;49583;45.590;-122.498;2023-08-30T04:32:43;101679.82;;;20.74;61.30
50632;BME280;49583;45.590;-122.498;2023-08-30T04:35:00;101680.54;;;20.73;61.36
50632;BME280;49583;45.590;-122.498;2023-08-30T04:37:15;101678.23;;;20.71;61.25
50632;BME280;49583;45.590;-122.498;2023-08-30T04:39:34;101680.55;;;20.73;61.37
50632;BME280;49583;45.590;-122.498;2023-08-30T04:41:50;101678.15;;;20.73;61.43
50632;BME280;49583;45.590;-122.498;2023-08-30T04:44:09;101679.03;;;20.73;61.37
50632;BME280;49583;45.590;-122.498;2023-08-30T04:46:42;101679.27;;;20.73;61.33
50632;BME280;49583;45.590;-122.498;2023-08-30T04:49:07;101678.95;;;20.72;61.36
50632;BME280;49583;45.590;-122.498;2023-08-30T04:51:20;101679.19;;;20.71;61.38
50632;BME280;49583;45.590;-122.498;2023-08-30T04:53:33;101677.84;;;20.70;61.36
50632;BME280;49583;45.590;-122.498;2023-08-30T04:55:54;101675.45;;;20.69;61.38
50632;BME280;49583;45.590;-122.498;2023-08-30T04:58:13;101675.95;;;20.66;61.46
50632;BME280;49583;45.590;-122.498;2023-08-30T05:00:30;101666.89;;;20.64;61.57
50632;BME280;49583;45.590;-122.498;2023-08-30T05:02:53;101669.29;;;20.63;61.52
50632;BME280;49583;45.590;-122.498;2023-08-30T05:05:32;101665.78;;;20.61;61.43
50632;BME280;49583;45.590;-122.498;2023-08-30T05:07:55;101663.90;;;20.59;61.45
50632;BME280;49583;45.590;-122.498;2023-08-30T05:10:23;101666.61;;;20.58;61.52
50632;BME280;49583;45.590;-122.498;2023-08-30T05:12:36;101672.66;;;20.57;61.40
50632;BME280;49583;45.590;-122.498;2023-08-30T05:15:01;101679.90;;;20.56;61.45
50632;BME280;49583;45.590;-122.498;2023-08-30T05:17:19;101678.77;;;20.56;61.57
50632;BME280;49583;45.590;-122.498;2023-08-30T05:19:51;101686.48;;;20.53;61.47
50632;BME280;49583;45.590;-122.498;2023-08-30T05:22:09;101687.54;;;20.51;61.47
50632;BME280;49583;45.590;-122.498;2023-08-30T05:24:32;101688.90;;;20.48;61.76
50632;BME280;49583;45.590;-122.498;2023-08-30T05:26:45;101692.08;;;20.47;62.11
50632;BME280;49583;45.590;-122.498;2023-08-30T05:29:02;101692.81;;;20.43;62.32
50632;BME280;49583;45.590;-122.498;2023-08-30T05:31:29;101696.23;;;20.36;62.69
50632;BME280;49583;45.590;-122.498;2023-08-30T05:34:04;101702.12;;;20.26;63.04
50632;BME280;49583;45.590;-122.498;2023-08-30T05:36:50;101700.95;;;20.17;63.38
50632;BME280;49583;45.590;-122.498;2023-08-30T05:39:23;101703.89;;;20.08;63.62
50632;BME280;49583;45.590;-122.498;2023-08-30T05:41:41;101708.61;;;20.03;64.06
50632;BME280;49583;45.590;-122.498;2023-08-30T05:44:10;101704.07;;;19.98;64.23
50632;BME280;49583;45.590;-122.498;2023-08-30T05:46:26;101705.27;;;19.91;64.33
50632;BME280;49583;45.590;-122.498;2023-08-30T05:48:42;101704.88;;;19.85;64.46
50632;BME280;49583;45.590;-122.498;2023-08-30T05:50:55;101700.91;;;19.79;64.76
50632;BME280;49583;45.590;-122.498;2023-08-30T05:53:24;101701.70;;;19.74;64.90
50632;BME280;49583;45.590;-122.498;2023-08-30T05:55:42;101704.64;;;19.70;65.25
50632;BME280;49583;45.590;-122.498;2023-08-30T05:57:58;101706.63;;;19.67;65.53
50632;BME280;49583;45.590;-122.498;2023-08-30T06:00:14;101704.40;;;19.63;65.71
50632;BME280;49583;45.590;-122.498;2023-08-30T06:02:40;101702.17;;;19.61;65.97
50632;BME280;49583;45.590;-122.498;2023-08-30T06:04:58;101703.86;;;19.57;66.16
50632;BME280;49583;45.590;-122.498;2023-08-30T06:07:11;101706.94;;;19.54;66.31
50632;BME280;49583;45.590;-122.498;2023-08-30T06:09:24;101710.17;;;19.52;66.46
50632;BME280;49583;45.590;-122.498;2023-08-30T06:11:40;101698.13;;;19.49;66.53
50632;BME280;49583;45.590;-122.498;2023-08-30T06:14:10;101700.79;;;19.46;66.62
50632;BME280;49583;45.590;-122.498;2023-08-30T06:16:34;101698.17;;;19.42;66.67
50632;BME280;49583;45.590;-122.498;2023-08-30T06:19:07;101698.47;;;19.38;66.89
50632;BME280;49583;45.590;-122.498;2023-08-30T06:21:40;101698.23;;;19.36;67.11
50632;BME280;49583;45.590;-122.498;2023-08-30T06:24:01;101697.99;;;19.33;67.33
50632;BME280;49583;45.590;-122.498;2023-08-30T06:26:25;101697.58;;;19.29;67.41
50632;BME280;49583;45.590;-122.498;2023-08-30T06:29:00;101692.98;;;19.27;67.64
50632;BME280;49583;45.590;-122.498;2023-08-30T06:31:26;101689.56;;;19.23;67.71
50632;BME280;49583;45.590;-122.498;2023-08-30T06:33:42;101689.95;;;19.19;67.81
50632;BME280;49583;45.590;-122.498;2023-08-30T06:35:59;101691.70;;;19.17;68.07
50632;BME280;49583;45.590;-122.498;2023-08-30T06:38:32;101694.06;;;19.14;68.10
50632;BME280;49583;45.590;-122.498;2023-08-30T06:40:48;101694.70;;;19.09;68.21
50632;BME280;49583;45.590;-122.498;2023-08-30T06:43:10;101697.77;;;19.07;68.34
50632;BME280;49583;45.590;-122.498;2023-08-30T06:45:23;101702.92;;;19.05;68.45
50632;BME280;49583;45.590;-122.498;2023-08-30T06:47:56;101698.63;;;19.01;68.55
50632;BME280;49583;45.590;-122.498;2023-08-30T06:50:31;101695.29;;;18.95;68.76
50632;BME280;49583;45.590;-122.498;2023-08-30T06:52:47;101695.60;;;18.94;68.73
50632;BME280;49583;45.590;-122.498;2023-08-30T06:55:03;101693.05;;;18.92;68.91
50632;BME280;49583;45.590;-122.498;2023-08-30T06:57:16;101694.00;;;18.90;68.93
50632;BME280;49583;45.590;-122.498;2023-08-30T06:59:30;101693.52;;;18.88;69.03
50632;BME280;49583;45.590;-122.498;2023-08-30T07:01:46;101691.67;;;18.85;69.12
50632;BME280;49583;45.590;-122.498;2023-08-30T07:04:10;101699.13;;;18.82;69.26
50632;BME280;49583;45.590;-122.498;2023-08-30T07:06:26;101702.28;;;18.79;69.35
50632;BME280;49583;45.590;-122.498;2023-08-30T07:08:41;101702.27;;;18.76;69.50
50632;BME280;49583;45.590;-122.498;2023-08-30T07:10:58;101698.46;;;18.73;69.64
50632;BME280;49583;45.590;-122.498;2023-08-30T07:13:16;101694.56;;;18.71;69.69
50632;BME280;49583;45.590;-122.498;2023-08-30T07:15:28;101696.99;;;18.68;69.76
50632;BME280;49583;45.590;-122.498;2023-08-30T07:17:50;101696.83;;;18.64;69.82
50632;BME280;49583;45.590;-122.498;2023-08-30T07:20:17;101698.55;;;18.60;69.79
50632;BME280;49583;45.590;-122.498;2023-08-30T07:22:29;101694.25;;;18.56;69.76
50632;BME280;49583;45.590;-122.498;2023-08-30T07:24:55;101691.83;;;18.53;69.95
50632;BME280;49583;45.590;-122.498;2023-08-30T07:27:08;101695.62;;;18.50;70.11
50632;BME280;49583;45.590;-122.498;2023-08-30T07:29:33;101694.66;;;18.47;70.17
50632;BME280;49583;45.590;-122.498;2023-08-30T07:31:51;101696.30;;;18.44;70.30
50632;BME280;49583;45.590;-122.498;2023-08-30T07:34:07;101694.32;;;18.42;70.36
50632;BME280;49583;45.590;-122.498;2023-08-30T07:36:21;101697.15;;;18.40;70.37
50632;BME280;49583;45.590;-122.498;2023-08-30T07:38:56;101693.95;;;18.37;70.56
50632;BME280;49583;45.590;-122.498;2023-08-30T07:41:09;101690.47;;;18.34;70.59
50632;BME280;49583;45.590;-122.498;2023-08-30T07:43:25;101686.10;;;18.31;70.64
50632;BME280;49583;45.590;-122.498;2023-08-30T07:45:50;101686.86;;;18.29;70.71
50632;BME280;49583;45.590;-122.498;2023-08-30T07:48:04;101688.05;;;18.27;70.69
50632;BME280;49583;45.590;-122.498;2023-08-30T07:50:17;101694.05;;;18.24;70.78
50632;BME280;49583;45.590;-122.498;2023-08-30T07:52:33;101691.10;;;18.22;70.86
50632;BME280;49583;45.590;-122.498;2023-08-30T07:54:54;101690.77;;;18.20;70.97
50632;BME280;49583;45.590;-122.498;2023-08-30T07:57:07;101689.43;;;18.19;71.04
50632;BME280;49583;45.590;-122.498;2023-08-30T07:59:20;101685.31;;;18.19;71.23
50632;BME280;49583;45.590;-122.498;2023-08-30T08:01:33;101681.75;;;18.19;71.32
50632;BME280;49583;45.590;-122.498;2023-08-30T08:03:48;101680.23;;;18.20;71.61
50632;BME280;49583;45.590;-122.498;2023-08-30T08:06:14;101684.83;;;18.20;71.57
50632;BME280;49583;45.590;-122.498;2023-08-30T08:08:27;101687.77;;;18.19;71.58
50632;BME280;49583;45.590;-122.498;2023-08-30T08:10:41;101686.18;;;18.18;71.58
50632;BME280;49583;45.590;-122.498;2023-08-30T08:12:57;101690.69;;;18.17;71.76
50632;BME280;49583;45.590;-122.498;2023-08-30T08:15:11;101690.67;;;18.17;71.92
50632;BME280;49583;45.590;-122.498;2023-08-30T08:17:24;101691.08;;;18.17;72.07
50632;BME280;49583;45.590;-122.498;2023-08-30T08:19:37;101691.95;;;18.17;72.18
50632;BME280;49583;45.590;-122.498;2023-08-30T08:21:50;101688.46;;;18.16;72.25
50632;BME280;49583;45.590;-122.498;2023-08-30T08:24:04;101689.98;;;18.18;72.31
50632;BME280;49583;45.590;-122.498;2023-08-30T08:26:17;101682.38;;;18.18;72.43
50632;BME280;49583;45.590;-122.498;2023-08-30T08:28:33;101681.67;;;18.19;72.54
50632;BME280;49583;45.590;-122.498;2023-08-30T08:30:49;101682.22;;;18.19;72.69
50632;BME280;49583;45.590;-122.498;2023-08-30T08:33:03;101683.96;;;18.20;72.69
50632;BME280;49583;45.590;-122.498;2023-08-30T08:35:17;101683.64;;;18.21;72.68
50632;BME280;49583;45.590;-122.498;2023-08-30T08:37:30;101686.25;;;18.21;72.74
50632;BME280;49583;45.590;-122.498;2023-08-30T08:39:43;101687.29;;;18.21;72.80
50632;BME280;49583;45.590;-122.498;2023-08-30T08:42:08;101685.63;;;18.21;72.85
50632;BME280;49583;45.590;-122.498;2023-08-30T08:44:21;101684.59;;;18.21;72.94
50632;BME280;49583;45.590;-122.498;2023-08-30T08:46:37;101681.10;;;18.20;73.06
50632;BME280;49583;45.590;-122.498;2023-08-30T08:48:51;101682.55;;;18.22;73.18
50632;BME280;49583;45.590;-122.498;2023-08-30T08:51:10;101684.90;;;18.21;73.01
50632;BME280;49583;45.590;-122.498;2023-08-30T08:53:24;101683.16;;;18.21;73.09
50632;BME280;49583;45.590;-122.498;2023-08-30T08:55:41;101686.42;;;18.21;73.35
50632;BME280;49583;45.590;-122.498;2023-08-30T08:57:55;101687.38;;;18.23;73.59
50632;BME280;49583;45.590;-122.498;2023-08-30T09:00:29;101691.52;;;18.23;73.70
50632;BME280;49583;45.590;-122.498;2023-08-30T09:02:43;101690.38;;;18.22;73.62
50632;BME280;49583;45.590;-122.498;2023-08-30T09:05:07;101692.04;;;18.21;73.56
50632;BME280;49583;45.590;-122.498;2023-08-30T09:07:20;101692.44;;;18.18;73.71
50632;BME280;49583;45.590;-122.498;2023-08-30T09:09:33;101697.83;;;18.18;73.67
50632;BME280;49583;45.590;-122.498;2023-08-30T09:11:47;101697.34;;;18.18;73.69
50632;BME280;49583;45.590;-122.498;2023-08-30T09:14:03;101699.81;;;18.18;73.57
50632;BME280;49583;45.590;-122.498;2023-08-30T09:16:37;101701.64;;;18.19;73.77
50632;BME280;49583;45.590;-122.498;2023-08-30T09:19:02;101700.36;;;18.19;73.79
50632;BME280;49583;45.590;-122.498;2023-08-30T09:21:22;101701.62;;;18.18;73.74
50632;BME280;49583;45.590;-122.498;2023-08-30T09:23:46;101702.23;;;18.16;73.80
50632;BME280;49583;45.590;-122.498;2023-08-30T09:26:32;101703.73;;;18.15;73.86
50632;BME280;49583;45.590;-122.498;2023-08-30T09:28:46;101705.24;;;18.15;73.82
50632;BME280;49583;45.590;-122.498;2023-08-30T09:31:00;101705.95;;;18.15;73.90
50632;BME280;49583;45.590;-122.498;2023-08-30T09:33:35;101705.72;;;18.16;73.92
50632;BME280;49583;45.590;-122.498;2023-08-30T09:35:50;101701.84;;;18.15;73.96
50632;BME280;49583;45.590;-122.498;2023-08-30T09:38:03;101704.14;;;18.15;74.03
50632;BME280;49583;45.590;-122.498;2023-08-30T09:40:28;101705.40;;;18.16;74.05
50632;BME280;49583;45.590;-122.498;2023-08-30T09:42:44;101705.26;;;18.17;74.06
50632;BME280;49583;45.590;-122.498;2023-08-30T09:45:25;101706.91;;;18.16;73.90
50632;BME280;49583;45.590;-122.498;2023-08-30T09:47:38;101703.50;;;18.16;73.89
50632;BME280;49583;45.590;-122.498;2023-08-30T09:49:52;101703.89;;;18.15;73.78
50632;BME280;49583;45.590;-122.498;2023-08-30T09:52:07;101708.16;;;18.15;73.77
50632;BME280;49583;45.590;-122.498;2023-08-30T09:54:20;101707.45;;;18.14;73.63
50632;BME280;49583;45.590;-122.498;2023-08-30T09:56:57;101708.07;;;18.14;73.59
50632;BME280;49583;45.590;-122.498;2023-08-30T09:59:24;101704.56;;;18.11;73.70
50632;BME280;49583;45.590;-122.498;2023-08-30T10:01:49;101704.02;;;18.12;73.77
50632;BME280;49583;45.590;-122.498;2023-08-30T10:04:23;101702.77;;;18.12;73.81
50632;BME280;49583;45.590;-122.498;2023-08-30T10:06:49;101704.67;;;18.12;73.76
50632;BME280;49583;45.590;-122.498;2023-08-30T10:09:04;101706.17;;;18.12;73.71
50632;BME280;49583;45.590;-122.498;2023-08-30T10:11:19;101708.79;;;18.11;73.71
50632;BME280;49583;45.590;-122.498;2023-08-30T10:13:32;101709.73;;;18.10;73.55
50632;BME280;49583;45.590;-122.498;2023-08-30T10:16:06;101710.59;;;18.09;73.45
50632;BME280;49583;45.590;-122.498;2023-08-30T10:18:22;101709.61;;;18.06;73.35
50632;BME280;49583;45.590;-122.498;2023-08-30T10:20:38;101711.02;;;18.03;73.21
50632;BME280;49583;45.590;-122.498;2023-08-30T10:22:53;101709.82;;;18.01;73.40
50632;BME280;49583;45.590;-122.498;2023-08-30T10:25:11;101710.83;;;17.99;73.22
50632;BME280;49583;45.590;-122.498;2023-08-30T10:27:28;101710.65;;;17.97;73.24
50632;BME280;49583;45.590;-122.498;2023-08-30T10:29:43;101710.41;;;17.95;73.10
50632;BME280;49583;45.590;-122.498;2023-08-30T10:32:29;101713.23;;;17.92;73.06
50632;BME280;49583;45.590;-122.498;2023-08-30T10:34:46;101718.83;;;17.91;73.02
50632;BME280;49583;45.590;-122.498;2023-08-30T10:37:05;101716.77;;;17.90;73.11
50632;BME280;49583;45.590;-122.498;2023-08-30T10:39:18;101716.67;;;17.89;72.96
50632;BME280;49583;45.590;-122.498;2023-08-30T10:41:30;101716.38;;;17.89;72.97
50632;BME280;49583;45.590;-122.498;2023-08-30T10:43:43;101713.98;;;17.89;72.99
50632;BME280;49583;45.590;-122.498;2023-08-30T10:46:06;101712.41;;;17.90;72.75
50632;BME280;49583;45.590;-122.498;2023-08-30T10:48:23;101712.48;;;17.89;72.76
50632;BME280;49583;45.590;-122.498;2023-08-30T10:50:46;101707.81;;;17.89;72.72
50632;BME280;49583;45.590;-122.498;2023-08-30T10:52:59;101706.16;;;17.90;72.87
50632;BME280;49583;45.590;-122.498;2023-08-30T10:55:15;101705.77;;;17.90;72.89
50632;BME280;49583;45.590;-122.498;2023-08-30T10:57:28;101705.92;;;17.90;72.94
50632;BME280;49583;45.590;-122.498;2023-08-30T10:59:47;101704.17;;;17.89;72.73
50632;BME280;49583;45.590;-122.498;2023-08-30T11:02:03;101712.80;;;17.86;72.69
50632;BME280;49583;45.590;-122.498;2023-08-30T11:04:19;101706.36;;;17.85;72.71
50632;BME280;49583;45.590;-122.498;2023-08-30T11:06:32;101709.84;;;17.83;72.70
50632;BME280;49583;45.590;-122.498;2023-08-30T11:08:44;101711.17;;;17.82;72.69
50632;BME280;49583;45.590;-122.498;2023-08-30T11:11:05;101709.89;;;17.82;72.66
50632;BME280;49583;45.590;-122.498;2023-08-30T11:13:21;101712.27;;;17.82;72.82
50632;BME280;49583;45.590;-122.498;2023-08-30T11:15:34;101706.95;;;17.79;72.80
50632;BME280;49583;45.590;-122.498;2023-08-30T11:17:46;101712.52;;;17.84;72.83
50632;BME280;49583;45.590;-122.498;2023-08-30T11:20:08;101715.95;;;17.85;72.84
50632;BME280;49583;45.590;-122.498;2023-08-30T11:22:21;101711.85;;;17.86;72.96
50632;BME280;49583;45.590;-122.498;2023-08-30T11:24:36;101710.10;;;17.85;72.83
50632;BME280;49583;45.590;-122.498;2023-08-30T11:26:48;101707.65;;;17.86;72.84
50632;BME280;49583;45.590;-122.498;2023-08-30T11:29:08;101705.66;;;17.86;72.90
50632;BME280;49583;45.590;-122.498;2023-08-30T11:31:25;101707.64;;;17.85;72.94
50632;BME280;49583;45.590;-122.498;2023-08-30T11:33:38;101706.20;;;17.85;72.90
50632;BME280;49583;45.590;-122.498;2023-08-30T11:35:51;101710.33;;;17.85;72.75
50632;BME280;49583;45.590;-122.498;2023-08-30T11:38:05;101710.64;;;17.85;72.69
50632;BME280;49583;45.590;-122.498;2023-08-30T11:40:17;101710.23;;;17.85;72.64
50632;BME280;49583;45.590;-122.498;2023-08-30T11:42:32;101710.63;;;17.84;72.76
50632;BME280;49583;45.590;-122.498;2023-08-30T11:44:45;101710.55;;;17.84;72.67
50632;BME280;49583;45.590;-122.498;2023-08-30T11:47:02;101708.89;;;17.84;72.65
50632;BME280;49583;45.590;-122.498;2023-08-30T11:49:15;101706.98;;;17.84;72.66